Terminal Aerodrome Forecast
Issued by NWS

Home | Current Version | Previous Version | Text Only | Print | Product List | Glossary On
Versions: 1 2 3 4 5 6 7 8 9 10 11 12 13 14 15 16 17 18 19 20 21 22 23 24 25 26 27 28 29 30 31 32 33 34 35 36 37 38 39 40 41 42 43 44 45 46 47 48 49 50
000
FTUS45 KBOU 151422 CCA
TAFBJC
TAF COR
KBJC 151422Z 1514/1612 04010KT 2SM -FZDZSN BR BKN006 OVC010
      TEMPO 1514/1516 1 1/2SM -FZDZSN BR OVC004
     FM151600 08008KT 1SM -SN BR BKN004 OVC008
     FM151900 05010KT 3SM -SN BR SCT008 OVC012
     FM152200 07009KT P6SM VCSH SCT008 BKN020 OVC030
     FM160300 15006KT P6SM SCT040 SCT120
     FM160600 24006KT P6SM SCT220=

USA.gov is the U.S. government's official web portal to all federal, state and local government web resources and services.